Terminal Aerodrome Forecast
Issued by NWS

Home | Current Version | Previous Version | Text Only | Print | Product List | Glossary On
Versions: 1 2 3 4 5 6 7 8 9 10 11 12
428
FTUS42 KMLB 291127
TAFISM
TAF
KISM 291127Z 2912/3012 VRB03KT P6SM SCT120
     FM291500 30005KT P6SM FEW040 SCT250
     FM292100 08008KT P6SM VCSH BKN060
     FM300100 11006KT P6SM FEW080 SCT250=

USA.gov is the U.S. government's official web portal to all federal, state and local government web resources and services.